createdAt,value
2022-09-15T00:04:24.721Z,12.6
2022-09-15T00:14:25.221Z,12.5
2022-09-15T00:24:25.515Z,12.4
2022-09-15T00:34:26.184Z,12.3
2022-09-15T00:44:26.384Z,12.2
2022-09-15T00:54:27.189Z,12
2022-09-15T01:04:27.956Z,11.8
2022-09-15T01:58:21.988Z,11.9
2022-09-15T02:05:37.663Z,11.9
2022-09-15T02:15:37.924Z,12
2022-09-15T02:35:39.309Z,12
2022-09-15T02:45:39.472Z,12.2
2022-09-15T02:55:39.604Z,12.5
2022-09-15T03:05:39.888Z,12.7
2022-09-15T03:15:40.058Z,12.9
2022-09-15T03:25:41.067Z,12.9
2022-09-15T03:35:41.702Z,12.9
2022-09-15T03:45:41.914Z,12.9
2022-09-15T03:55:42.585Z,12.9
2022-09-15T04:05:43.124Z,12.9
2022-09-15T04:15:43.292Z,13
2022-09-15T04:25:43.561Z,12.9
2022-09-15T04:35:44.306Z,12.9
2022-09-15T04:45:45.008Z,13
2022-09-15T04:55:45.430Z,13.1
2022-09-15T05:05:46.211Z,13.1
2022-09-15T05:15:46.887Z,13.1
2022-09-15T05:25:47.827Z,13.1
2022-09-15T05:35:48.686Z,13.1
2022-09-15T05:45:49.558Z,13.1
2022-09-15T05:55:49.826Z,13.2
2022-09-15T06:05:50.530Z,13.3
2022-09-15T06:15:50.659Z,13.4
2022-09-15T06:35:51.716Z,13.5
2022-09-15T06:45:51.903Z,13.7
2022-09-15T06:55:52.005Z,13.8
2022-09-15T07:05:52.332Z,13.9
2022-09-15T07:15:53.064Z,14.1
2022-09-15T07:25:53.330Z,14.2
2022-09-15T07:35:54.160Z,14.3
2022-09-15T07:45:54.315Z,14.4
2022-09-15T07:55:54.722Z,14.4
2022-09-15T08:05:55.392Z,14.6
2022-09-15T08:15:55.849Z,14.7
2022-09-15T08:25:56.222Z,14.9
2022-09-15T08:35:56.678Z,15.1
2022-09-15T08:55:57.952Z,15.5
2022-09-15T09:05:58.485Z,15.8
2022-09-15T09:15:59.045Z,16.1
2022-09-15T09:25:59.255Z,16.2
2022-09-15T09:35:59.500Z,16
2022-09-15T09:46:00.451Z,15.6
2022-09-15T09:56:00.981Z,14.6
2022-09-15T10:06:01.523Z,14.4
2022-09-15T10:16:02.107Z,14.4
2022-09-15T10:26:03.132Z,14.6
2022-09-15T10:36:04.098Z,14.8
2022-09-15T10:46:04.764Z,15.1
2022-09-15T10:56:05.603Z,15.5
2022-09-15T11:06:05.777Z,16.3
2022-09-15T11:16:06.013Z,17
2022-09-15T11:26:06.687Z,17.7
2022-09-15T11:36:06.964Z,17.6
2022-09-15T11:46:07.801Z,17.3
2022-09-15T11:56:08.387Z,17.1
2022-09-15T12:16:09.741Z,16.7
2022-09-15T12:26:09.838Z,16.6
2022-09-15T12:36:10.186Z,16.7
2022-09-15T12:46:10.871Z,17.2
2022-09-15T12:56:11.912Z,17.5
2022-09-15T13:06:12.041Z,18
2022-09-15T13:16:12.461Z,17.8
2022-09-15T13:26:13.325Z,17.7
2022-09-15T13:36:14.242Z,17.8
2022-09-15T13:46:14.746Z,18
2022-09-15T13:56:15.138Z,17.8
2022-09-15T14:06:15.391Z,17.8
2022-09-15T14:16:16.033Z,17.8
2022-09-15T14:26:17.017Z,17.9
2022-09-15T14:36:18.029Z,17.4
2022-09-15T14:46:18.611Z,16.7
2022-09-15T14:56:18.753Z,16.4
2022-09-15T15:06:29.290Z,16.5
2022-09-15T15:16:19.279Z,16.5
2022-09-15T15:26:19.616Z,16.6
2022-09-15T15:36:20.278Z,16.7
2022-09-15T15:46:21.341Z,16.8
2022-09-15T15:56:22.347Z,16.8
2022-09-15T16:16:23.978Z,17
2022-09-15T16:26:23.992Z,17.1
2022-09-15T16:36:24.130Z,17
2022-09-15T16:46:24.308Z,16.6
2022-09-15T16:56:24.943Z,16.3
2022-09-15T17:06:25.785Z,16.2
2022-09-15T17:16:26.745Z,16.2
2022-09-15T17:26:31.126Z,16.1
2022-09-15T17:36:27.181Z,15.9
2022-09-15T17:46:27.980Z,15.7
2022-09-15T17:56:28.884Z,15.6
2022-09-15T18:06:29.134Z,15.3
2022-09-15T18:16:30.114Z,15.1
2022-09-15T18:36:31.120Z,14.8
2022-09-15T18:46:31.891Z,14.8
2022-09-15T18:56:32.258Z,14.7
2022-09-15T19:06:33.018Z,14.7
2022-09-15T19:16:47.080Z,14.7
2022-09-15T19:26:34.329Z,14.8
2022-09-15T19:36:34.802Z,14.8
2022-09-15T19:46:35.160Z,14.5
2022-09-15T19:56:36.156Z,14.3
2022-09-15T20:06:36.811Z,14
2022-09-15T20:16:37.715Z,13.7
2022-09-15T20:26:38.425Z,13.6
2022-09-15T20:36:39.524Z,13.5
2022-09-15T20:46:40.570Z,13.5
2022-09-15T20:56:40.782Z,13.4
2022-09-15T21:06:41.309Z,13.3
2022-09-15T21:16:42.128Z,13.2
2022-09-15T21:26:43.114Z,13.1
2022-09-15T21:36:43.779Z,13
2022-09-15T21:46:43.964Z,13
2022-09-15T21:56:44.150Z,13
2022-09-15T22:06:44.403Z,13
2022-09-15T22:16:45.040Z,12.9
2022-09-15T22:26:45.718Z,12.9
2022-09-15T22:36:46.480Z,12.9
2022-09-15T22:56:47.048Z,12.9
2022-09-15T23:06:47.589Z,12.9
2022-09-15T23:16:48.414Z,12.8
2022-09-15T23:26:49.056Z,12.8
2022-09-15T23:36:50.011Z,12.8
2022-09-15T23:46:50.235Z,12.7
2022-09-15T23:56:50.540Z,12.7
